sensor_id;sensor_type;location;lat;lon;timestamp;P1;durP1;ratioP1;P2;durP2;ratioP2
64674;SDS011;51090;51.512;11.332;2023-09-07T09:10:07;3.65;;;1.98;;
64674;SDS011;51090;51.512;11.332;2023-09-07T13:29:07;2.60;;;0.88;;
64674;SDS011;51090;51.512;11.332;2023-09-07T13:41:56;2.20;;;0.93;;
64674;SDS011;51090;51.512;11.332;2023-09-07T13:45:10;2.13;;;1.17;;
64674;SDS011;51090;51.512;11.332;2023-09-07T13:47:36;0.85;;;0.80;;
64674;SDS011;51090;51.512;11.332;2023-09-07T13:50:03;2.30;;;1.17;;
64674;SDS011;51090;51.512;11.332;2023-09-07T13:52:37;2.63;;;1.33;;
64674;SDS011;51090;51.512;11.332;2023-09-07T13:59:05;2.38;;;1.30;;
64674;SDS011;51090;51.512;11.332;2023-09-07T14:01:44;2.45;;;1.42;;
64674;SDS011;51090;51.512;11.332;2023-09-07T14:04:10;1.08;;;0.82;;
64674;SDS011;51090;51.512;11.332;2023-09-07T14:06:35;1.55;;;1.13;;
64674;SDS011;51090;51.512;11.332;2023-09-07T14:09:01;1.48;;;1.02;;
64674;SDS011;51090;51.512;11.332;2023-09-07T14:11:27;1.80;;;1.10;;
64674;SDS011;51090;51.512;11.332;2023-09-07T14:13:52;2.88;;;0.93;;
64674;SDS011;51090;51.512;11.332;2023-09-07T14:16:19;1.15;;;0.70;;
64674;SDS011;51090;51.512;11.332;2023-09-07T14:18:46;1.33;;;0.95;;
64674;SDS011;51090;51.512;11.332;2023-09-07T14:26:23;4.03;;;1.27;;
64674;SDS011;51090;51.512;11.332;2023-09-07T14:28:48;4.50;;;1.25;;
64674;SDS011;51090;51.512;11.332;2023-09-07T14:31:15;3.97;;;1.40;;
64674;SDS011;51090;51.512;11.332;2023-09-07T14:33:41;2.58;;;0.98;;
64674;SDS011;51090;51.512;11.332;2023-09-07T14:36:07;2.28;;;1.00;;
64674;SDS011;51090;51.512;11.332;2023-09-07T14:38:36;0.95;;;0.70;;
64674;SDS011;51090;51.512;11.332;2023-09-07T14:43:52;4.03;;;1.00;;
64674;SDS011;51090;51.512;11.332;2023-09-07T14:47:29;1.08;;;0.90;;
64674;SDS011;51090;51.512;11.332;2023-09-07T14:50:00;3.08;;;1.10;;
64674;SDS011;51090;51.512;11.332;2023-09-07T14:52:27;1.48;;;1.00;;
64674;SDS011;51090;51.512;11.332;2023-09-07T14:54:57;1.02;;;0.88;;
64674;SDS011;51090;51.512;11.332;2023-09-07T14:57:37;1.27;;;0.93;;
64674;SDS011;51090;51.512;11.332;2023-09-07T15:00:25;1.33;;;0.95;;
64674;SDS011;51090;51.512;11.332;2023-09-07T15:03:09;1.00;;;0.68;;
64674;SDS011;51090;51.512;11.332;2023-09-07T15:06:08;2.88;;;1.02;;
64674;SDS011;51090;51.512;11.332;2023-09-07T15:09:23;2.17;;;1.00;;
64674;SDS011;51090;51.512;11.332;2023-09-07T15:11:56;1.67;;;1.00;;
64674;SDS011;51090;51.512;11.332;2023-09-07T15:14:27;0.95;;;0.68;;
64674;SDS011;51090;51.512;11.332;2023-09-07T15:17:05;1.42;;;1.10;;
64674;SDS011;51090;51.512;11.332;2023-09-07T15:19:36;1.67;;;1.17;;
64674;SDS011;51090;51.512;11.332;2023-09-07T15:22:01;1.83;;;1.00;;
64674;SDS011;51090;51.512;11.332;2023-09-07T15:24:27;3.85;;;1.15;;
64674;SDS011;51090;51.512;11.332;2023-09-07T15:26:53;1.65;;;0.90;;
64674;SDS011;51090;51.512;11.332;2023-09-07T15:29:19;1.48;;;0.90;;
64674;SDS011;51090;51.512;11.332;2023-09-07T15:31:45;1.15;;;0.93;;
64674;SDS011;51090;51.512;11.332;2023-09-07T15:34:11;2.00;;;0.82;;
64674;SDS011;51090;51.512;11.332;2023-09-07T15:36:36;2.70;;;1.17;;
64674;SDS011;51090;51.512;11.332;2023-09-07T15:39:02;2.30;;;1.17;;
64674;SDS011;51090;51.512;11.332;2023-09-07T15:46:33;0.80;;;0.70;;
64674;SDS011;51090;51.512;11.332;2023-09-07T15:48:58;2.42;;;1.35;;
64674;SDS011;51090;51.512;11.332;2023-09-07T15:51:24;1.67;;;1.15;;
64674;SDS011;51090;51.512;11.332;2023-09-07T15:53:50;2.08;;;1.00;;
64674;SDS011;51090;51.512;11.332;2023-09-07T15:56:15;1.90;;;0.90;;
64674;SDS011;51090;51.512;11.332;2023-09-07T15:58:41;1.15;;;0.93;;
64674;SDS011;51090;51.512;11.332;2023-09-07T16:01:08;2.90;;;1.10;;
64674;SDS011;51090;51.512;11.332;2023-09-07T16:03:34;1.17;;;0.90;;
64674;SDS011;51090;51.512;11.332;2023-09-07T16:05:59;1.08;;;0.80;;
64674;SDS011;51090;51.512;11.332;2023-09-07T16:08:25;0.98;;;0.85;;
64674;SDS011;51090;51.512;11.332;2023-09-07T16:10:57;0.90;;;0.65;;
64674;SDS011;51090;51.512;11.332;2023-09-07T16:13:25;2.53;;;1.13;;
64674;SDS011;51090;51.512;11.332;2023-09-07T16:15:52;1.80;;;1.17;;
64674;SDS011;51090;51.512;11.332;2023-09-07T16:18:18;2.15;;;1.25;;
64674;SDS011;51090;51.512;11.332;2023-09-07T16:20:45;1.23;;;0.93;;
64674;SDS011;51090;51.512;11.332;2023-09-07T16:23:13;2.28;;;0.90;;
64674;SDS011;51090;51.512;11.332;2023-09-07T16:25:40;1.48;;;1.00;;
64674;SDS011;51090;51.512;11.332;2023-09-07T16:28:05;3.88;;;1.00;;
64674;SDS011;51090;51.512;11.332;2023-09-07T16:30:31;4.65;;;1.02;;
64674;SDS011;51090;51.512;11.332;2023-09-07T16:32:57;3.22;;;1.05;;
64674;SDS011;51090;51.512;11.332;2023-09-07T16:35:23;4.38;;;1.58;;
64674;SDS011;51090;51.512;11.332;2023-09-07T16:37:49;2.95;;;0.93;;
64674;SDS011;51090;51.512;11.332;2023-09-07T16:40:14;2.10;;;1.23;;
64674;SDS011;51090;51.512;11.332;2023-09-07T16:42:41;3.53;;;1.08;;
64674;SDS011;51090;51.512;11.332;2023-09-07T16:45:07;2.22;;;1.08;;
64674;SDS011;51090;51.512;11.332;2023-09-07T16:47:33;1.85;;;1.00;;
64674;SDS011;51090;51.512;11.332;2023-09-07T16:49:59;2.92;;;0.95;;
64674;SDS011;51090;51.512;11.332;2023-09-07T16:52:25;1.48;;;1.05;;
64674;SDS011;51090;51.512;11.332;2023-09-07T16:54:52;1.85;;;1.17;;
64674;SDS011;51090;51.512;11.332;2023-09-07T16:57:18;1.85;;;1.02;;
64674;SDS011;51090;51.512;11.332;2023-09-07T16:59:44;0.85;;;0.65;;
64674;SDS011;51090;51.512;11.332;2023-09-07T17:02:11;1.35;;;0.95;;
64674;SDS011;51090;51.512;11.332;2023-09-07T17:04:37;2.83;;;0.80;;
64674;SDS011;51090;51.512;11.332;2023-09-07T17:07:04;1.42;;;0.98;;
64674;SDS011;51090;51.512;11.332;2023-09-07T17:09:30;3.20;;;1.20;;
64674;SDS011;51090;51.512;11.332;2023-09-07T17:14:29;2.30;;;1.17;;
64674;SDS011;51090;51.512;11.332;2023-09-07T17:16:59;1.10;;;1.00;;
64674;SDS011;51090;51.512;11.332;2023-09-07T17:19:28;1.92;;;0.98;;
64674;SDS011;51090;51.512;11.332;2023-09-07T17:21:56;3.25;;;1.08;;
64674;SDS011;51090;51.512;11.332;2023-09-07T17:24:22;2.30;;;1.00;;
64674;SDS011;51090;51.512;11.332;2023-09-07T17:26:48;1.08;;;0.98;;
64674;SDS011;51090;51.512;11.332;2023-09-07T17:29:13;1.38;;;0.95;;
64674;SDS011;51090;51.512;11.332;2023-09-07T17:31:39;1.35;;;1.00;;
64674;SDS011;51090;51.512;11.332;2023-09-07T17:34:05;4.10;;;1.20;;
64674;SDS011;51090;51.512;11.332;2023-09-07T17:36:31;2.28;;;1.00;;
64674;SDS011;51090;51.512;11.332;2023-09-07T17:38:57;2.83;;;1.20;;
64674;SDS011;51090;51.512;11.332;2023-09-07T17:41:29;3.03;;;1.10;;
64674;SDS011;51090;51.512;11.332;2023-09-07T17:43:58;1.50;;;0.85;;
64674;SDS011;51090;51.512;11.332;2023-09-07T17:46:24;3.17;;;1.00;;
64674;SDS011;51090;51.512;11.332;2023-09-07T17:48:50;2.10;;;1.08;;
64674;SDS011;51090;51.512;11.332;2023-09-07T17:51:16;1.30;;;0.95;;
64674;SDS011;51090;51.512;11.332;2023-09-07T17:53:43;1.40;;;0.82;;
64674;SDS011;51090;51.512;11.332;2023-09-07T17:56:11;2.42;;;0.85;;
64674;SDS011;51090;51.512;11.332;2023-09-07T17:58:38;3.55;;;1.10;;
64674;SDS011;51090;51.512;11.332;2023-09-07T18:01:10;2.17;;;0.98;;
64674;SDS011;51090;51.512;11.332;2023-09-07T18:03:38;1.27;;;0.93;;
64674;SDS011;51090;51.512;11.332;2023-09-07T18:06:04;1.90;;;0.95;;
64674;SDS011;51090;51.512;11.332;2023-09-07T18:08:30;1.00;;;0.80;;
64674;SDS011;51090;51.512;11.332;2023-09-07T18:10:57;2.25;;;1.25;;
64674;SDS011;51090;51.512;11.332;2023-09-07T18:13:23;1.35;;;0.90;;
64674;SDS011;51090;51.512;11.332;2023-09-07T18:15:49;1.60;;;1.00;;
64674;SDS011;51090;51.512;11.332;2023-09-07T18:18:15;1.63;;;0.80;;
64674;SDS011;51090;51.512;11.332;2023-09-07T18:20:41;1.27;;;0.95;;
64674;SDS011;51090;51.512;11.332;2023-09-07T18:23:07;2.20;;;1.25;;
64674;SDS011;51090;51.512;11.332;2023-09-07T18:25:36;2.38;;;1.20;;
64674;SDS011;51090;51.512;11.332;2023-09-07T18:28:02;3.58;;;1.27;;
64674;SDS011;51090;51.512;11.332;2023-09-07T18:30:30;1.70;;;1.05;;
64674;SDS011;51090;51.512;11.332;2023-09-07T18:32:57;3.17;;;1.02;;
64674;SDS011;51090;51.512;11.332;2023-09-07T18:35:23;1.27;;;1.00;;
64674;SDS011;51090;51.512;11.332;2023-09-07T18:37:50;3.00;;;1.13;;
64674;SDS011;51090;51.512;11.332;2023-09-07T18:40:16;2.47;;;1.50;;
64674;SDS011;51090;51.512;11.332;2023-09-07T18:42:42;2.35;;;1.17;;
64674;SDS011;51090;51.512;11.332;2023-09-07T18:45:08;2.17;;;1.15;;
64674;SDS011;51090;51.512;11.332;2023-09-07T18:47:34;2.33;;;1.02;;
64674;SDS011;51090;51.512;11.332;2023-09-07T18:50:02;1.88;;;1.20;;
64674;SDS011;51090;51.512;11.332;2023-09-07T18:52:28;2.03;;;1.10;;
64674;SDS011;51090;51.512;11.332;2023-09-07T18:54:54;4.93;;;1.10;;
64674;SDS011;51090;51.512;11.332;2023-09-07T18:57:20;1.20;;;1.00;;
64674;SDS011;51090;51.512;11.332;2023-09-07T18:59:47;1.42;;;1.00;;
64674;SDS011;51090;51.512;11.332;2023-09-07T19:05:22;2.58;;;0.93;;
64674;SDS011;51090;51.512;11.332;2023-09-07T19:07:50;3.22;;;1.50;;
64674;SDS011;51090;51.512;11.332;2023-09-07T19:10:17;4.65;;;1.27;;
64674;SDS011;51090;51.512;11.332;2023-09-07T19:12:43;2.50;;;1.00;;
64674;SDS011;51090;51.512;11.332;2023-09-07T19:15:10;1.90;;;1.27;;
64674;SDS011;51090;51.512;11.332;2023-09-07T19:17:36;1.40;;;0.93;;
64674;SDS011;51090;51.512;11.332;2023-09-07T19:20:01;2.00;;;1.23;;
64674;SDS011;51090;51.512;11.332;2023-09-07T19:22:27;4.25;;;0.90;;
64674;SDS011;51090;51.512;11.332;2023-09-07T19:24:53;3.00;;;1.35;;
64674;SDS011;51090;51.512;11.332;2023-09-07T19:27:19;6.18;;;1.00;;
64674;SDS011;51090;51.512;11.332;2023-09-07T19:29:45;3.05;;;1.83;;
64674;SDS011;51090;51.512;11.332;2023-09-07T19:32:11;1.02;;;0.80;;
64674;SDS011;51090;51.512;11.332;2023-09-07T19:34:39;2.65;;;1.40;;
64674;SDS011;51090;51.512;11.332;2023-09-07T19:37:05;3.55;;;1.20;;
64674;SDS011;51090;51.512;11.332;2023-09-07T19:39:30;4.55;;;1.30;;
64674;SDS011;51090;51.512;11.332;2023-09-07T19:47:07;4.18;;;1.58;;
64674;SDS011;51090;51.512;11.332;2023-09-07T19:49:35;3.88;;;1.60;;
64674;SDS011;51090;51.512;11.332;2023-09-07T19:52:00;1.58;;;1.30;;
64674;SDS011;51090;51.512;11.332;2023-09-07T19:54:26;1.50;;;1.27;;
64674;SDS011;51090;51.512;11.332;2023-09-07T19:56:52;2.38;;;1.50;;
64674;SDS011;51090;51.512;11.332;2023-09-07T19:59:17;2.30;;;1.60;;
64674;SDS011;51090;51.512;11.332;2023-09-07T20:01:56;4.00;;;1.73;;
64674;SDS011;51090;51.512;11.332;2023-09-07T20:04:24;3.47;;;1.58;;
64674;SDS011;51090;51.512;11.332;2023-09-07T20:06:51;2.88;;;1.50;;
64674;SDS011;51090;51.512;11.332;2023-09-07T20:09:18;1.75;;;1.30;;
64674;SDS011;51090;51.512;11.332;2023-09-07T20:14:38;1.85;;;1.15;;
64674;SDS011;51090;51.512;11.332;2023-09-07T20:17:46;1.60;;;1.23;;
64674;SDS011;51090;51.512;11.332;2023-09-07T20:20:13;2.95;;;1.77;;
64674;SDS011;51090;51.512;11.332;2023-09-07T20:22:38;2.05;;;1.50;;
64674;SDS011;51090;51.512;11.332;2023-09-07T20:25:05;1.98;;;1.10;;
64674;SDS011;51090;51.512;11.332;2023-09-07T20:27:31;2.05;;;1.38;;
64674;SDS011;51090;51.512;11.332;2023-09-07T20:29:57;2.75;;;1.55;;
64674;SDS011;51090;51.512;11.332;2023-09-07T20:40:11;2.35;;;1.48;;
64674;SDS011;51090;51.512;11.332;2023-09-07T20:43:37;2.78;;;1.30;;
64674;SDS011;51090;51.512;11.332;2023-09-07T20:46:03;2.63;;;1.63;;
64674;SDS011;51090;51.512;11.332;2023-09-07T20:48:29;2.50;;;1.58;;
64674;SDS011;51090;51.512;11.332;2023-09-07T20:50:55;3.00;;;1.77;;
64674;SDS011;51090;51.512;11.332;2023-09-07T20:53:20;3.25;;;1.77;;
64674;SDS011;51090;51.512;11.332;2023-09-07T20:55:47;2.08;;;1.42;;
64674;SDS011;51090;51.512;11.332;2023-09-07T20:58:13;2.65;;;1.50;;
64674;SDS011;51090;51.512;11.332;2023-09-07T21:00:39;4.30;;;1.55;;
64674;SDS011;51090;51.512;11.332;2023-09-07T21:03:05;3.95;;;1.55;;
64674;SDS011;51090;51.512;11.332;2023-09-07T21:05:30;3.13;;;1.65;;
64674;SDS011;51090;51.512;11.332;2023-09-07T21:07:57;2.42;;;1.65;;
64674;SDS011;51090;51.512;11.332;2023-09-07T21:10:22;6.40;;;1.90;;
64674;SDS011;51090;51.512;11.332;2023-09-07T21:12:48;2.85;;;1.45;;
64674;SDS011;51090;51.512;11.332;2023-09-07T21:15:14;3.63;;;1.88;;
64674;SDS011;51090;51.512;11.332;2023-09-07T21:17:41;1.77;;;1.33;;
64674;SDS011;51090;51.512;11.332;2023-09-07T21:20:09;3.17;;;1.60;;
64674;SDS011;51090;51.512;11.332;2023-09-07T21:26:16;3.47;;;1.88;;
64674;SDS011;51090;51.512;11.332;2023-09-07T21:28:42;3.10;;;1.45;;
64674;SDS011;51090;51.512;11.332;2023-09-07T21:31:08;2.17;;;1.48;;
64674;SDS011;51090;51.512;11.332;2023-09-07T21:33:35;2.33;;;1.13;;
64674;SDS011;51090;51.512;11.332;2023-09-07T21:36:01;3.72;;;1.73;;
64674;SDS011;51090;51.512;11.332;2023-09-07T21:38:28;2.60;;;1.52;;
64674;SDS011;51090;51.512;11.332;2023-09-07T21:40:55;2.60;;;1.52;;
64674;SDS011;51090;51.512;11.332;2023-09-07T21:43:20;3.53;;;1.45;;
64674;SDS011;51090;51.512;11.332;2023-09-07T21:45:46;2.25;;;1.40;;
64674;SDS011;51090;51.512;11.332;2023-09-07T21:48:12;2.35;;;1.70;;
64674;SDS011;51090;51.512;11.332;2023-09-07T21:50:38;5.55;;;1.70;;
64674;SDS011;51090;51.512;11.332;2023-09-07T22:00:48;6.53;;;1.88;;
64674;SDS011;51090;51.512;11.332;2023-09-07T22:03:13;8.07;;;2.03;;
64674;SDS011;51090;51.512;11.332;2023-09-07T22:05:39;2.38;;;1.67;;
64674;SDS011;51090;51.512;11.332;2023-09-07T22:08:05;2.17;;;1.58;;
64674;SDS011;51090;51.512;11.332;2023-09-07T22:10:31;3.58;;;1.77;;
64674;SDS011;51090;51.512;11.332;2023-09-07T22:12:56;3.83;;;1.98;;
64674;SDS011;51090;51.512;11.332;2023-09-07T22:15:24;3.47;;;2.10;;
64674;SDS011;51090;51.512;11.332;2023-09-07T22:17:50;2.22;;;1.77;;
64674;SDS011;51090;51.512;11.332;2023-09-07T22:20:16;3.47;;;1.90;;
64674;SDS011;51090;51.512;11.332;2023-09-07T22:22:42;3.05;;;1.80;;
64674;SDS011;51090;51.512;11.332;2023-09-07T22:25:08;2.33;;;1.60;;
64674;SDS011;51090;51.512;11.332;2023-09-07T22:27:33;4.45;;;1.73;;
64674;SDS011;51090;51.512;11.332;2023-09-07T22:30:01;6.03;;;2.00;;
